Time;durP1;ratioP1;P1;durP2;ratioP2;P2;SDS_P1;SDS_P2;PMS_P1;PMS_P2;Temp;Humidity;BMP_temperature;BMP_pressure;BME280_temperature;BME280_humidity;BME280_pressure;Samples;Min_cycle;Max_cycle;Signal;HPM_P1;HPM_P2
2022/01/12 00:01:00;;;;;;;24.10;16.43;;;;;;;;;;5015497;28;20514;-67
2022/01/12 00:03:26;;;;;;;20.37;14.60;;;;;;;;;;5015549;28;20439;-67
2022/01/12 00:05:53;;;;;;;22.80;14.50;;;;;;;;;;5015943;28;20416;-67
2022/01/12 00:08:19;;;;;;;28.37;17.83;;;;;;;;;;5015542;28;20411;-67
2022/01/12 00:10:45;;;;;;;23.47;15.53;;;;;;;;;;5015342;28;20427;-67
2022/01/12 00:13:11;;;;;;;26.43;18.00;;;;;;;;;;5015409;28;20408;-67
2022/01/12 00:15:38;;;;;;;23.63;17.10;;;;;;;;;;5014029;28;20411;-67
2022/01/12 00:18:04;;;;;;;28.20;17.47;;;;;;;;;;5015234;28;20923;-67
2022/01/12 00:20:30;;;;;;;25.87;16.23;;;;;;;;;;5015425;28;20939;-67
2022/01/12 00:22:57;;;;;;;25.30;16.00;;;;;;;;;;5015256;28;20404;-67
2022/01/12 00:25:27;;;;;;;26.10;16.13;;;;;;;;;;5015176;28;20407;-67
2022/01/12 00:33:23;;;;;;;28.60;16.90;;;;;;;;;;5015532;28;20387;-67
2022/01/12 00:35:53;;;;;;;28.87;18.03;;;;;;;;;;5015495;28;20423;-69
2022/01/12 00:38:21;;;;;;;23.13;16.67;;;;;;;;;;5015076;28;20475;-66
2022/01/12 00:40:49;;;;;;;21.97;15.57;;;;;;;;;;5013836;28;20430;-68
2022/01/12 00:43:16;;;;;;;26.47;18.30;;;;;;;;;;5014916;28;20400;-68
2022/01/12 00:45:42;;;;;;;23.63;16.70;;;;;;;;;;5014701;28;20458;-68
2022/01/12 00:48:10;;;;;;;25.87;18.23;;;;;;;;;;5015237;28;20403;-68
2022/01/12 00:50:36;;;;;;;25.10;17.00;;;;;;;;;;5014652;28;20434;-67
2022/01/12 00:53:03;;;;;;;26.00;17.33;;;;;;;;;;5014618;28;20400;-68
2022/01/12 00:55:30;;;;;;;34.60;19.10;;;;;;;;;;5014924;28;20408;-68
2022/01/12 00:57:58;;;;;;;29.63;17.93;;;;;;;;;;5014831;28;20813;-67
2022/01/12 01:00:24;;;;;;;28.10;18.63;;;;;;;;;;5014710;28;20419;-68
2022/01/12 01:02:50;;;;;;;28.37;18.50;;;;;;;;;;5014565;28;20438;-68
2022/01/12 01:05:20;;;;;;;24.07;17.13;;;;;;;;;;5014549;28;20407;-67
2022/01/12 01:07:46;;;;;;;29.10;18.73;;;;;;;;;;5014459;28;20396;-67
2022/01/12 01:10:17;;;;;;;26.90;18.53;;;;;;;;;;5014204;28;20509;-68
2022/01/12 01:12:45;;;;;;;28.67;18.73;;;;;;;;;;5014541;28;20951;-68
2022/01/12 01:15:14;;;;;;;28.07;19.20;;;;;;;;;;5014312;28;20916;-68
2022/01/12 01:25:38;;;;;;;33.60;20.70;;;;;;;;;;5014076;28;20383;-68
2022/01/12 01:28:04;;;;;;;28.03;19.60;;;;;;;;;;5014015;28;20414;-68
2022/01/12 01:30:31;;;;;;;30.10;19.30;;;;;;;;;;5013935;28;20451;-68
2022/01/12 01:33:04;;;;;;;32.70;21.33;;;;;;;;;;5012833;28;20924;-67
2022/01/12 01:35:31;;;;;;;27.37;19.00;;;;;;;;;;5014266;28;20383;-68
2022/01/12 01:37:59;;;;;;;30.23;19.63;;;;;;;;;;5014030;28;20414;-68
2022/01/12 01:40:26;;;;;;;32.50;20.80;;;;;;;;;;5013966;28;20436;-68
2022/01/12 01:53:38;;;;;;;31.60;21.17;;;;;;;;;;5013925;28;20380;-67
2022/01/12 01:56:04;;;;;;;32.17;19.80;;;;;;;;;;5013707;28;20486;-67
2022/01/12 01:58:30;;;;;;;29.13;18.93;;;;;;;;;;5013889;28;20459;-68
2022/01/12 02:00:56;;;;;;;35.10;21.17;;;;;;;;;;5014016;28;20912;-67
2022/01/12 02:03:26;;;;;;;36.50;21.77;;;;;;;;;;5013787;28;20399;-67
2022/01/12 02:05:52;;;;;;;33.40;21.13;;;;;;;;;;5013167;28;20465;-68
2022/01/12 02:08:18;;;;;;;32.47;22.07;;;;;;;;;;5013794;28;20896;-68
2022/01/12 02:10:44;;;;;;;33.37;21.83;;;;;;;;;;5013568;28;20502;-67
2022/01/12 02:13:10;;;;;;;33.57;21.30;;;;;;;;;;5013598;28;20403;-67
2022/01/12 02:15:37;;;;;;;33.47;21.87;;;;;;;;;;5013516;28;20482;-67
2022/01/12 02:39:50;;;;;;;34.40;21.20;;;;;;;;;;5013757;28;20419;-67
2022/01/12 02:40:07;;;;;;;34.13;21.30;;;;;;;;;;5013048;28;20831;-67
2022/01/12 02:42:34;;;;;;;37.30;22.60;;;;;;;;;;5013539;28;20388;-67
2022/01/12 02:50:57;;;;;;;33.93;21.63;;;;;;;;;;5014093;28;20466;-68
2022/01/12 02:53:39;;;;;;;36.40;22.43;;;;;;;;;;5030087;28;20406;-73
2022/01/12 02:56:06;;;;;;;31.50;19.03;;;;;;;;;;5033242;28;20424;-67
2022/01/12 02:58:33;;;;;;;43.00;23.40;;;;;;;;;;5032768;28;20450;-67
2022/01/12 03:01:29;;;;;;;33.77;22.27;;;;;;;;;;5032967;28;20422;-67
2022/01/12 03:03:52;;;;;;;35.67;22.93;;;;;;;;;;5032623;28;20429;-67
2022/01/12 03:06:21;;;;;;;36.07;24.37;;;;;;;;;;5031528;28;20415;-67
2022/01/12 03:08:48;;;;;;;37.60;24.57;;;;;;;;;;5032940;28;20427;-67
2022/01/12 03:11:16;;;;;;;39.73;22.47;;;;;;;;;;5032635;28;20517;-67
2022/01/12 03:13:42;;;;;;;40.37;23.33;;;;;;;;;;5032619;28;20905;-67
2022/01/12 03:16:16;;;;;;;36.17;22.37;;;;;;;;;;5032641;28;20502;-67
2022/01/12 03:18:43;;;;;;;33.10;22.33;;;;;;;;;;5033550;28;20448;-67
2022/01/12 03:21:10;;;;;;;41.40;26.10;;;;;;;;;;5036155;28;20462;-67
2022/01/12 03:23:36;;;;;;;32.97;22.07;;;;;;;;;;5036377;28;20399;-67
2022/01/12 03:26:03;;;;;;;37.87;23.47;;;;;;;;;;5036328;28;20403;-67
2022/01/12 03:28:29;;;;;;;32.10;22.33;;;;;;;;;;5036391;28;20407;-68
2022/01/12 03:31:05;;;;;;;34.50;20.50;;;;;;;;;;5035936;28;20446;-67
2022/01/12 03:38:57;;;;;;;38.93;22.07;;;;;;;;;;5035917;28;20438;-67
2022/01/12 03:41:25;;;;;;;34.37;21.90;;;;;;;;;;5036095;28;20784;-67
2022/01/12 03:43:51;;;;;;;36.43;23.23;;;;;;;;;;5036269;28;20446;-67
2022/01/12 03:46:18;;;;;;;39.23;24.80;;;;;;;;;;5036000;28;20399;-67
2022/01/12 03:48:44;;;;;;;36.20;22.57;;;;;;;;;;5035788;28;20394;-67
2022/01/12 03:51:10;;;;;;;40.83;23.50;;;;;;;;;;5035648;28;20431;-67
2022/01/12 03:53:36;;;;;;;41.10;24.07;;;;;;;;;;5035714;28;20407;-67
2022/01/12 03:56:03;;;;;;;34.83;22.07;;;;;;;;;;5035745;28;20453;-67
2022/01/12 03:58:29;;;;;;;40.37;24.10;;;;;;;;;;5035720;28;20442;-67
2022/01/12 04:00:55;;;;;;;40.20;25.63;;;;;;;;;;5035501;28;20419;-67
2022/01/12 04:03:21;;;;;;;38.17;22.97;;;;;;;;;;5035454;28;20415;-67
2022/01/12 04:08:32;;;;;;;35.50;20.93;;;;;;;;;;5035338;28;20386;-67
2022/01/12 04:11:00;;;;;;;36.90;22.60;;;;;;;;;;5035185;28;20472;-67
2022/01/12 04:13:29;;;;;;;40.30;23.63;;;;;;;;;;5035319;28;20399;-67
2022/01/12 04:15:57;;;;;;;51.43;24.93;;;;;;;;;;5035491;28;20391;-67
2022/01/12 04:18:23;;;;;;;41.73;24.47;;;;;;;;;;5035195;28;20519;-67
2022/01/12 04:20:51;;;;;;;43.73;24.20;;;;;;;;;;5035112;28;20430;-67
2022/01/12 04:23:20;;;;;;;37.43;23.23;;;;;;;;;;5021923;28;20423;-67
2022/01/12 04:25:54;;;;;;;42.93;24.67;;;;;;;;;;5035010;28;20398;-67
2022/01/12 04:28:21;;;;;;;41.57;23.83;;;;;;;;;;5025440;28;20427;-68
2022/01/12 04:30:48;;;;;;;40.20;24.03;;;;;;;;;;5055128;23;20506;-56
2022/01/12 04:33:14;;;;;;;43.30;25.73;;;;;;;;;;5028261;28;20404;-53
2022/01/12 04:35:53;;;;;;;43.43;24.10;;;;;;;;;;5015236;28;20391;-55
2022/01/12 04:38:21;;;;;;;44.67;24.90;;;;;;;;;;5015047;28;20373;-55
2022/01/12 04:40:47;;;;;;;43.17;23.93;;;;;;;;;;5014668;28;20915;-55
2022/01/12 04:43:13;;;;;;;37.50;22.80;;;;;;;;;;5014719;28;20479;-55
2022/01/12 04:50:55;;;;;;;40.93;23.17;;;;;;;;;;5014648;28;20438;-53
2022/01/12 04:53:21;;;;;;;41.67;23.60;;;;;;;;;;5014592;28;20423;-55
2022/01/12 04:55:48;;;;;;;40.77;24.10;;;;;;;;;;5014881;28;20403;-52
2022/01/12 04:58:15;;;;;;;52.30;24.10;;;;;;;;;;5014511;28;20431;-53
2022/01/12 05:00:42;;;;;;;40.23;22.10;;;;;;;;;;5014432;28;20884;-52
2022/01/12 05:14:09;;;;;;;38.20;23.67;;;;;;;;;;5014678;28;20378;-51
2022/01/12 05:16:35;;;;;;;37.47;23.40;;;;;;;;;;5014450;28;20884;-51
2022/01/12 05:19:04;;;;;;;37.03;21.73;;;;;;;;;;5014007;28;20614;-53
2022/01/12 05:21:30;;;;;;;38.13;23.60;;;;;;;;;;5014398;28;20420;-53
2022/01/12 05:24:00;;;;;;;39.83;21.77;;;;;;;;;;5014404;28;20759;-52
2022/01/12 05:26:26;;;;;;;39.37;20.37;;;;;;;;;;5014045;28;20900;-54
2022/01/12 05:28:52;;;;;;;38.80;22.83;;;;;;;;;;5013863;28;20414;-56
2022/01/12 05:31:18;;;;;;;37.00;22.53;;;;;;;;;;5013851;28;20439;-53
2022/01/12 05:33:48;;;;;;;44.37;23.20;;;;;;;;;;5014178;28;20410;-55
2022/01/12 05:36:16;;;;;;;39.27;21.80;;;;;;;;;;5013828;28;20614;-54
2022/01/12 05:38:42;;;;;;;40.63;22.63;;;;;;;;;;5013620;28;20973;-53
2022/01/12 05:41:08;;;;;;;38.30;22.00;;;;;;;;;;5013251;28;20881;-51
2022/01/12 05:43:37;;;;;;;38.40;22.67;;;;;;;;;;5013956;28;20885;-54
2022/01/12 05:46:10;;;;;;;37.50;22.70;;;;;;;;;;5013590;28;20418;-54
2022/01/12 05:51:21;;;;;;;41.27;22.83;;;;;;;;;;5013568;28;20442;-52
2022/01/12 05:53:47;;;;;;;39.87;22.20;;;;;;;;;;5012258;28;20432;-53
2022/01/12 05:56:14;;;;;;;41.20;22.93;;;;;;;;;;5013518;28;20458;-54
2022/01/12 05:58:40;;;;;;;43.03;23.67;;;;;;;;;;5013638;28;20431;-54
2022/01/12 06:01:07;;;;;;;36.67;21.40;;;;;;;;;;5013710;28;20455;-53
2022/01/12 06:03:33;;;;;;;40.33;23.70;;;;;;;;;;5013350;28;20391;-54
2022/01/12 06:05:59;;;;;;;37.27;22.40;;;;;;;;;;5013426;28;20400;-51
2022/01/12 06:08:26;;;;;;;41.30;23.77;;;;;;;;;;5029660;28;20441;-54
2022/01/12 06:10:52;;;;;;;40.17;22.37;;;;;;;;;;5015023;28;20430;-51
2022/01/12 06:13:18;;;;;;;37.83;22.63;;;;;;;;;;5032411;28;20469;-59
2022/01/12 06:15:44;;;;;;;39.30;23.93;;;;;;;;;;5032608;28;20453;-54
2022/01/12 06:18:10;;;;;;;41.60;24.13;;;;;;;;;;5031698;28;20436;-52
2022/01/12 06:20:36;;;;;;;37.87;21.87;;;;;;;;;;5032291;28;20442;-54
2022/01/12 06:23:02;;;;;;;37.70;22.70;;;;;;;;;;5032725;28;20917;-54
2022/01/12 06:25:28;;;;;;;36.20;22.37;;;;;;;;;;5033914;28;20411;-64
2022/01/12 06:27:58;;;;;;;43.13;24.67;;;;;;;;;;5035456;28;20417;-64
2022/01/12 06:32:56;;;;;;;42.67;24.70;;;;;;;;;;5033516;28;20412;-66
2022/01/12 06:35:23;;;;;;;37.53;20.93;;;;;;;;;;5032860;28;20437;-61
2022/01/12 06:37:49;;;;;;;36.37;22.13;;;;;;;;;;5038589;28;20449;-62
2022/01/12 06:40:16;;;;;;;37.50;24.43;;;;;;;;;;5035241;28;20465;-66
2022/01/12 06:42:42;;;;;;;43.30;23.70;;;;;;;;;;5032741;28;20407;-65
2022/01/12 06:45:08;;;;;;;39.37;22.47;;;2.50;99.90;;;;;;5030164;28;20421;-65
2022/01/12 06:47:34;;;;;;;36.63;21.13;;;;;;;;;;5032425;28;20429;-54
2022/01/12 06:50:00;;;;;;;36.47;23.33;;;;;;;;;;5048505;28;20520;-51
2022/01/12 06:52:26;;;;;;;40.30;22.97;;;;;;;;;;5052298;28;20441;-54
2022/01/12 06:54:54;;;;;;;37.90;22.60;;;;;;;;;;5034475;28;20537;-52
2022/01/12 06:57:20;;;;;;;37.30;23.30;;;;;;;;;;5036952;28;20922;-56
2022/01/12 06:59:46;;;;;;;30.93;20.03;;;;;;;;;;5035785;28;20470;-54
2022/01/12 07:02:12;;;;;;;35.10;21.33;;;;;;;;;;5036115;28;20410;-51
2022/01/12 07:04:38;;;;;;;32.73;20.73;;;;;;;;;;5036613;28;20562;-54
2022/01/12 07:07:04;;;;;;;39.23;21.43;;;;;;;;;;5036887;28;20447;-55
2022/01/12 07:09:31;;;;;;;32.87;19.80;;;;;;;;;;5037044;28;20438;-51
2022/01/12 07:11:57;;;;;;;38.20;21.40;;;;;;;;;;5036687;28;20414;-53
2022/01/12 07:14:23;;;;;;;34.87;21.80;;;;;;;;;;5036216;28;20407;-55
2022/01/12 07:16:49;;;;;;;36.63;19.87;;;;;;;;;;5035830;28;20501;-52
2022/01/12 07:19:15;;;;;;;36.17;21.53;;;;;;;;;;5034238;28;20458;-54
2022/01/12 07:21:41;;;;;;;38.93;20.90;;;;;;;;;;5035664;28;20501;-51
2022/01/12 07:24:07;;;;;;;38.60;20.23;;;;;;;;;;5036288;28;20417;-51
2022/01/12 07:26:34;;;;;;;35.33;21.50;;;;;;;;;;5035540;28;20399;-51
2022/01/12 07:29:00;;;;;;;40.97;22.57;;;;;;;;;;5036028;28;20461;-53
2022/01/12 07:31:26;;;;;;;37.87;22.53;;;;;;;;;;5034839;28;20468;-53
2022/01/12 07:33:54;;;;;;;41.13;22.43;;;;;;;;;;5036275;28;20415;-54
2022/01/12 07:36:20;;;;;;;40.77;23.57;;;;;;;;;;5035917;28;20464;-50
2022/01/12 07:38:49;;;;;;;38.77;23.40;;;;;;;;;;5035906;28;20447;-54
2022/01/12 07:41:15;;;;;;;36.97;21.60;;;;;;;;;;5035993;28;20414;-51
2022/01/12 07:43:41;;;;;;;36.67;22.97;;;;;;;;;;5035831;28;20430;-52
2022/01/12 07:46:07;;;;;;;38.17;21.03;;;;;;;;;;5036774;28;20414;-54
2022/01/12 07:48:33;;;;;;;38.33;22.40;;;;;;;;;;5028079;28;20777;-51
2022/01/12 07:50:59;;;;;;;36.90;21.90;;;;;;;;;;5031618;28;20927;-53
2022/01/12 07:53:25;;;;;;;40.43;23.10;;;;;;;;;;5019467;28;20437;-55
2022/01/12 07:55:51;;;;;;;39.27;22.00;;;;;;;;;;5033480;28;20481;-53
2022/01/12 07:58:17;;;;;;;35.60;21.60;;;;;;;;;;5031038;28;20423;-51
2022/01/12 08:00:43;;;;;;;39.30;22.80;;;;;;;;;;5032255;28;20447;-50
2022/01/12 08:03:10;;;;;;;35.40;20.77;;;;;;;;;;5034507;28;20407;-51
2022/01/12 08:05:36;;;;;;;32.63;19.53;;;;;;;;;;5034415;28;20500;-51
2022/01/12 08:08:02;;;;;;;34.93;22.33;;;;;;;;;;5034513;28;21208;-54
2022/01/12 08:10:28;;;;;;;34.53;21.00;;;;;;;;;;5034935;28;20802;-55
2022/01/12 08:12:54;;;;;;;31.33;20.30;;;;;;;;;;5035174;28;20427;-52
2022/01/12 08:15:20;;;;;;;32.47;20.17;;;;;;;;;;5034017;28;20448;-55
2022/01/12 08:17:46;;;;;;;29.60;19.40;;;;;;;;;;5034297;28;20572;-53
2022/01/12 08:20:15;;;;;;;28.40;18.47;;;;;;;;;;5035087;28;20478;-53
2022/01/12 08:22:41;;;;;;;28.50;18.07;;;;;;;;;;5034298;28;20415;-55
2022/01/12 08:25:09;;;;;;;23.43;16.40;;;;;;;;;;5034561;28;20415;-53
2022/01/12 08:27:35;;;;;;;26.73;17.60;;;;;;;;;;5029706;28;21065;-55
2022/01/12 08:30:02;;;;;;;25.40;17.57;;;;;;;;;;5032895;28;20500;-53
2022/01/12 08:32:28;;;;;;;25.87;16.57;;;;;;;;;;5033075;28;20419;-53
2022/01/12 08:34:55;;;;;;;26.03;18.73;;;;;;;;;;5033171;28;20429;-52
2022/01/12 08:37:21;;;;;;;22.90;14.30;;;;;;;;;;5033702;28;20415;-57
2022/01/12 08:39:47;;;;;;;26.20;16.33;;;;;;;;;;5033212;28;20492;-50
2022/01/12 08:42:13;;;;;;;29.47;17.60;;;;;;;;;;5034359;28;20411;-53
2022/01/12 08:44:39;;;;;;;31.23;16.20;;;;;;;;;;5032953;28;20481;-53
2022/01/12 08:47:06;;;;;;;23.70;14.97;;;;;;;;;;5033370;28;20919;-56
2022/01/12 08:49:32;;;;;;;22.40;15.53;;;;;;;;;;5032724;28;20930;-56
2022/01/12 08:51:58;;;;;;;32.47;17.57;;;;;;;;;;5033547;28;20407;-55
2022/01/12 08:54:24;;;;;;;30.60;18.53;;;;;;;;;;5033876;28;20420;-54
2022/01/12 08:56:50;;;;;;;35.30;18.87;;;;;;;;;;5033149;28;20415;-54
2022/01/12 08:59:17;;;;;;;24.47;16.73;;;;;;;;;;5033065;28;20450;-54
2022/01/12 09:01:43;;;;;;;24.03;15.40;;;;;;;;;;5033916;28;20465;-51
2022/01/12 09:04:10;;;;;;;29.50;16.50;;;;;;;;;;5034141;28;20975;-51
2022/01/12 09:06:36;;;;;;;25.87;15.40;;;;;;;;;;5033156;28;20512;-55
2022/01/12 09:09:02;;;;;;;31.40;18.00;;;;;;;;;;5032585;28;20847;-53
2022/01/12 09:11:29;;;;;;;23.40;15.93;;;;;;;;;;5032558;28;20816;-54
2022/01/12 09:13:55;;;;;;;23.60;14.60;;;;;;;;;;5032794;28;20426;-57
2022/01/12 09:16:21;;;;;;;22.20;15.43;;;;;;;;;;5028175;28;20438;-53
2022/01/12 09:18:47;;;;;;;26.87;16.23;;;;;;;;;;5031730;28;20457;-51
2022/01/12 09:21:13;;;;;;;19.60;14.07;;;;;;;;;;5033092;28;20867;-53
2022/01/12 09:23:39;;;;;;;24.67;17.50;;;;;;;;;;5033502;28;20419;-54
2022/01/12 09:26:06;;;;;;;26.90;16.30;;;;;;;;;;5032171;28;20433;-55
2022/01/12 09:28:33;;;;;;;23.00;13.33;;;;;;;;;;5032642;28;20423;-53
2022/01/12 09:30:59;;;;;;;23.70;15.20;;;;;;;;;;5032606;28;20482;-53
2022/01/12 09:33:25;;;;;;;25.93;17.90;;;;;;;;;;5032530;28;20437;-52
2022/01/12 09:35:53;;;;;;;25.63;15.70;;;;;;;;;;5032310;28;20426;-52
2022/01/12 09:38:20;;;;;;;26.30;16.70;;;;;;;;;;5033033;28;20944;-52
2022/01/12 09:40:46;;;;;;;23.23;15.37;;;;;;;;;;5033012;28;20458;-52
2022/01/12 09:43:12;;;;;;;25.90;17.17;;;;;;;;;;5033144;28;20450;-55
2022/01/12 09:45:43;;;;;;;28.40;16.27;;;;;;;;;;5032760;28;20838;-53
2022/01/12 09:48:10;;;;;;;28.07;17.23;;;;;;;;;;5032241;28;20464;-50
2022/01/12 09:50:37;;;;;;;27.10;16.00;;;;;;;;;;5031761;28;20450;-54
2022/01/12 09:53:03;;;;;;;23.20;14.70;;;;;;;;;;5032450;28;20911;-54
2022/01/12 09:55:29;;;;;;;21.80;15.70;;;;;;;;;;5031597;28;20923;-51
2022/01/12 09:57:55;;;;;;;24.00;14.77;;;;;;;;;;5032802;28;20429;-55
2022/01/12 10:00:25;;;;;;;22.57;15.43;;;;;;;;;;5032187;28;20458;-54
2022/01/12 10:02:51;;;;;;;24.30;15.60;;;;;;;;;;5032184;28;20446;-53
2022/01/12 10:05:18;;;;;;;22.63;15.87;;;;;;;;;;5031808;28;20426;-53
2022/01/12 10:07:44;;;;;;;25.47;16.43;;;;;;;;;;5031727;28;20415;-50
2022/01/12 10:10:15;;;;;;;39.73;18.87;;;;;;;;;;5020638;28;20451;-55
2022/01/12 10:12:51;;;;;;;43.43;19.73;;;;;;;;;;5027889;28;20411;-55
2022/01/12 10:15:17;;;;;;;24.20;14.80;;;;;;;;;;5030762;28;20421;-54
2022/01/12 10:17:44;;;;;;;23.27;15.03;;;;;;;;;;5031902;28;20497;-52
2022/01/12 10:20:14;;;;;;;23.80;16.27;;;;;;;;;;5032308;28;20454;-52
2022/01/12 10:22:43;;;;;;;25.00;15.93;;;;;;;;;;5031691;28;20422;-55
2022/01/12 10:25:17;;;;;;;26.30;15.83;;;;;;;;;;5032331;28;20415;-50
2022/01/12 10:27:45;;;;;;;28.60;17.53;;;;;;;;;;5028948;28;20414;-53
2022/01/12 10:30:19;;;;;;;28.43;16.77;;;;;;;;;;5036479;28;20561;-54
2022/01/12 10:32:45;;;;;;;26.00;17.60;;;;;;;;;;5035659;28;20433;-51
2022/01/12 10:35:12;;;;;;;23.10;16.40;;;;;;;;;;5035815;28;20457;-54
2022/01/12 10:37:38;;;;;;;22.30;14.73;;;;;;;;;;5041702;28;20450;-53
2022/01/12 10:40:04;;;;;;;22.60;14.97;;;;;;;;;;5043029;28;20960;-50
2022/01/12 10:42:30;;;;;;;22.63;14.30;;;;;;;;;;5028135;28;20455;-54
2022/01/12 10:45:01;;;;;;;21.10;15.13;;;;;;;;;;5033460;28;20941;-54
2022/01/12 10:47:31;;;;;;;23.97;15.60;;;;;;;;;;5034999;28;20407;-51
2022/01/12 10:50:00;;;;;;;24.87;15.13;;;;;;;;;;5035513;28;20835;-54
2022/01/12 10:52:28;;;;;;;21.70;13.93;;;;;;;;;;5035027;28;20411;-56
2022/01/12 10:54:55;;;;;;;25.30;15.00;;;;;;;;;;5035590;28;20430;-50
2022/01/12 10:57:21;;;;;;;24.30;14.17;;;;;;;;;;5034121;28;20919;-53
2022/01/12 11:00:01;;;;;;;23.80;14.63;;;;;;;;;;5034963;28;20466;-52
2022/01/12 11:02:28;;;;;;;27.80;14.50;;;;;;;;;;5034101;28;20496;-50
2022/01/12 11:04:56;;;;;;;18.40;14.30;;;;;;;;;;5034591;28;20415;-53
2022/01/12 11:07:23;;;;;;;24.33;15.13;;;;;;;;;;5034566;28;20564;-50
2022/01/12 11:09:49;;;;;;;26.07;15.97;;;;;;;;;;5029419;28;20462;-52
2022/01/12 11:12:15;;;;;;;22.77;15.00;;;;;;;;;;5035670;28;20560;-54
2022/01/12 11:14:42;;;;;;;24.33;15.23;;;;;;;;;;5036536;28;20472;-52
2022/01/12 11:17:08;;;;;;;26.57;14.70;;;;;;;;;;5035685;28;20433;-52
2022/01/12 11:19:35;;;;;;;25.17;14.33;;;;;;;;;;5036205;28;20467;-51
2022/01/12 11:22:12;;;;;;;23.33;15.97;;;;;;;;;;5036056;28;20778;-54
2022/01/12 11:24:38;;;;;;;24.13;15.30;;;;;;;;;;5035992;28;20391;-52
2022/01/12 11:27:06;;;;;;;21.13;14.87;;;;;;;;;;5035634;28;20410;-53
2022/01/12 11:29:36;;;;;;;20.27;14.13;;;;;;;;;;5033656;28;20930;-51
2022/01/12 11:32:05;;;;;;;20.67;15.03;;;;;;;;;;5035338;28;20410;-53
2022/01/12 11:34:31;;;;;;;22.47;15.30;;;;;;;;;;5031246;28;20462;-51
2022/01/12 11:36:57;;;;;;;22.50;14.37;;;;;;;;;;5033243;28;20418;-53
2022/01/12 11:39:31;;;;;;;24.40;14.50;;;;;;;;;;5044773;28;20503;-55
2022/01/12 11:41:59;;;;;;;24.10;16.60;;;;;;;;;;5036719;28;20501;-55
2022/01/12 11:44:28;;;;;;;20.87;13.80;;;;;;;;;;5036702;28;20464;-52
2022/01/12 11:46:56;;;;;;;22.60;15.73;;;;;;;;;;5033015;28;20442;-54
2022/01/12 11:49:25;;;;;;;20.83;14.80;;;;;;;;;;5033242;28;20419;-52
2022/01/12 11:51:51;;;;;;;23.23;14.80;;;;;;;;;;5034381;28;20422;-53
2022/01/12 11:54:22;;;;;;;25.20;16.90;;;;;;;;;;5034298;28;20469;-54
2022/01/12 11:56:55;;;;;;;28.80;17.50;;;;;;;;;;5034688;28;20425;-54
2022/01/12 11:59:22;;;;;;;25.33;15.90;;;;;;;;;;5033447;28;20455;-56
2022/01/12 12:01:53;;;;;;;22.33;15.57;;;;;;;;;;5034640;28;20411;-51
2022/01/12 12:04:23;;;;;;;21.70;15.20;;;;;;;;;;5034146;28;20477;-53
2022/01/12 12:06:50;;;;;;;25.43;14.73;;;;;;;;;;5030644;28;20503;-54
2022/01/12 12:09:22;;;;;;;23.37;15.93;;;;;;;;;;5030849;28;20931;-54
2022/01/12 12:11:51;;;;;;;25.10;17.27;;;;;;;;;;5034929;28;20808;-53
2022/01/12 12:14:17;;;;;;;26.23;14.80;;;;;;;;;;5034269;28;20430;-52
2022/01/12 12:16:44;;;;;;;24.53;16.40;;;;;;;;;;5034174;28;20429;-56
2022/01/12 12:19:10;;;;;;;22.93;14.50;;;;;;;;;;5034426;28;20572;-55
2022/01/12 12:21:36;;;;;;;25.70;15.87;;;;;;;;;;5034355;28;20512;-53
2022/01/12 12:24:08;;;;;;;24.00;14.63;;;;;;;;;;5034494;28;20514;-52
2022/01/12 12:26:35;;;;;;;26.57;16.10;;;;;;;;;;5033698;28;20422;-54
2022/01/12 12:29:01;;;;;;;23.70;14.60;;;;;;;;;;5033659;28;20484;-50
2022/01/12 12:31:30;;;;;;;25.10;14.87;;;;;;;;;;5033738;28;20451;-55
2022/01/12 12:34:05;;;;;;;27.60;15.40;;;;;;;;;;5033742;28;20421;-52
2022/01/12 12:36:32;;;;;;;29.00;14.93;;;;;;;;;;5036931;28;20430;-52
2022/01/12 12:39:08;;;;;;;32.17;18.70;;;;;;;;;;5032727;28;20462;-54
2022/01/12 12:41:39;;;;;;;23.67;14.47;;;;;;;;;;5033089;28;20445;-53
2022/01/12 12:44:05;;;;;;;23.10;15.37;;;;;;;;;;5033703;28;20411;-53
2022/01/12 12:46:31;;;;;;;26.33;16.30;;;;;;;;;;5032358;28;20427;-53
2022/01/12 12:48:57;;;;;;;31.77;16.37;;;;;;;;;;5028856;28;20751;-54
2022/01/12 12:51:24;;;;;;;25.60;17.00;;;;;;;;;;5026882;28;20454;-52
2022/01/12 12:53:54;;;;;;;32.37;16.77;;;;;;;;;;5031300;28;20418;-52
2022/01/12 12:56:26;;;;;;;32.90;16.97;;;;;;;;;;5031715;28;20446;-51
2022/01/12 12:58:53;;;;;;;27.33;15.80;;;;;;;;;;5027891;28;21328;-51
2022/01/12 13:01:21;;;;;;;36.00;19.37;;;;;;;;;;5030190;28;20529;-53
2022/01/12 13:03:48;;;;;;;27.93;17.07;;;;;;;;;;5024266;28;20461;-53
2022/01/12 13:06:28;;;;;;;26.80;17.10;;;;;;;;;;5032471;28;20422;-55
2022/01/12 13:08:55;;;;;;;30.17;16.37;;;;;;;;;;5030601;28;20870;-53
2022/01/12 13:11:28;;;;;;;29.90;19.83;;;;;;;;;;5033023;28;20521;-50
2022/01/12 13:14:03;;;;;;;33.27;16.37;;;;;;;;;;5033064;28;20430;-53
2022/01/12 13:16:30;;;;;;;29.13;17.70;;;;;;;;;;5032178;28;20755;-57
2022/01/12 13:19:05;;;;;;;29.63;16.67;;;;;;;;;;5031425;28;20839;-53
2022/01/12 13:21:35;;;;;;;30.30;20.10;;;;;;;;;;5032336;28;20445;-51
2022/01/12 13:24:02;;;;;;;32.50;19.00;;;;;;;;;;5031872;28;20411;-52
2022/01/12 13:26:31;;;;;;;24.13;15.37;;;;;;;;;;5033635;28;20762;-55
2022/01/12 13:29:00;;;;;;;30.38;19.73;;;;;;;;;;5030675;28;20917;-55
2022/01/12 13:31:27;;;;;;;30.20;19.67;;;;;;;;;;5032605;28;20222;-57
2022/01/12 13:33:53;;;;;;;32.67;17.23;;;;;;;;;;5032683;28;20422;-52
2022/01/12 13:36:22;;;;;;;31.50;18.43;;;;;;;;;;5031652;28;20474;-52
2022/01/12 13:38:58;;;;;;;32.77;17.93;;;;;;;;;;5031399;28;20545;-54
2022/01/12 13:41:27;;;;;;;27.90;17.40;;;;;;;;;;5027499;28;20464;-56
2022/01/12 13:43:58;;;;;;;27.57;16.10;;;;;;;;;;5032491;28;20413;-55
2022/01/12 13:46:29;;;;;;;25.93;17.37;;;;;;;;;;5030340;28;20411;-55
2022/01/12 13:51:44;;;;;;;30.13;17.67;;;;;;;;;;5030177;28;20423;-55
2022/01/12 13:54:14;;;;;;;27.40;16.70;;;;;;;;;;5032354;28;20964;-55
2022/01/12 13:56:47;;;;;;;27.63;16.30;;;;;;;;;;5029779;28;20423;-58
2022/01/12 13:59:15;;;;;;;22.17;15.27;;;;;;;;;;5030642;28;21038;-55
2022/01/12 14:01:42;;;;;;;25.90;16.07;;;;;;;;;;5030526;28;20426;-51
2022/01/12 14:06:46;;;;;;;23.70;16.33;;;;;;;;;;5032005;28;20584;-55
2022/01/12 14:09:24;;;;;;;27.13;16.33;;;;;;;;;;5029586;28;20411;-55
2022/01/12 14:11:51;;;;;;;25.07;17.37;;;;;;;;;;5031082;28;20411;-55
2022/01/12 14:14:17;;;;;;;24.63;15.50;;;;;;;;;;5031824;28;20438;-54
2022/01/12 14:16:43;;;;;;;26.33;15.93;;;;;;;;;;5026844;28;20532;-53
2022/01/12 14:19:10;;;;;;;29.77;16.23;;;;;;;;;;5030595;28;20458;-56
2022/01/12 14:21:36;;;;;;;28.07;16.80;;;;;;;;;;5031690;28;20434;-53
2022/01/12 14:24:06;;;;;;;28.80;19.93;;;;;;;;;;5030678;28;20406;-52
2022/01/12 14:26:42;;;;;;;24.73;16.13;;;;;;;;;;5030804;28;20430;-55
2022/01/12 14:29:09;;;;;;;27.33;16.83;;;;;;;;;;5031097;28;20413;-53
2022/01/12 14:31:36;;;;;;;25.03;15.47;;;;;;;;;;5029469;28;20826;-52
2022/01/12 14:34:02;;;;;;;22.57;15.13;;;;;;;;;;5031009;28;20446;-55
2022/01/12 14:36:28;;;;;;;25.70;16.53;;;;;;;;;;5028367;28;20504;-55
2022/01/12 14:38:54;;;;;;;25.13;15.90;;;;;;;;;;5034970;28;21052;-55
2022/01/12 14:41:21;;;;;;;23.10;15.60;;;;;;;;;;5041456;28;20547;-54
2022/01/12 14:43:49;;;;;;;24.50;15.93;;;;;;;;;;5028175;28;20501;-52
2022/01/12 14:46:15;;;;;;;24.63;16.53;;;;;;;;;;5030786;28;20481;-55
2022/01/12 14:48:41;;;;;;;25.70;17.10;;;;;;;;;;5029366;28;20418;-55
2022/01/12 14:51:07;;;;;;;33.43;19.53;;;;;;;;;;5030818;28;20441;-51
2022/01/12 14:53:34;;;;;;;25.90;16.70;;;;;;;;;;5030725;28;20880;-52
2022/01/12 14:56:02;;;;;;;26.13;16.30;;;;;;;;;;5030868;28;20423;-52
2022/01/12 14:58:30;;;;;;;22.60;14.90;;;;;;;;;;5027393;28;20458;-53
2022/01/12 15:00:57;;;;;;;32.10;16.73;;;;;;;;;;5028843;28;20438;-52
2022/01/12 15:03:23;;;;;;;28.77;15.53;;;;;;;;;;5030775;28;20411;-53
2022/01/12 15:05:50;;;;;;;30.00;16.67;;;;;;;;;;5024591;28;20466;-54
2022/01/12 15:08:17;;;;;;;25.10;14.17;;;;;;;;;;5028903;28;20427;-53
2022/01/12 15:10:44;;;;;;;29.67;17.17;;;;;;;;;;5027959;28;20537;-54
2022/01/12 15:13:17;;;;;;;31.57;18.20;;;;;;;;;;5024345;28;20426;-51
2022/01/12 15:15:44;;;;;;;27.50;16.60;;;;;;;;;;5022463;28;20510;-53
2022/01/12 15:18:10;;;;;;;28.67;17.37;;;;;;;;;;5025473;28;20433;-54
2022/01/12 15:20:36;;;;;;;31.50;19.73;;;;;;;;;;5031900;28;20500;-53
2022/01/12 15:23:03;;;;;;;31.67;18.33;;;;;;;;;;5033787;28;20421;-56
2022/01/12 15:25:29;;;;;;;30.10;16.70;;;;;;;;;;5026463;28;20418;-58
2022/01/12 15:27:56;;;;;;;33.63;18.53;;;;;;;;;;5035008;28;20418;-54
2022/01/12 15:30:22;;;;;;;32.60;19.10;;;;;;;;;;5032749;28;20535;-55
2022/01/12 15:32:49;;;;;;;30.27;16.73;;;;;;;;;;5030248;28;20434;-51
2022/01/12 15:35:19;;;;;;;30.90;19.07;;;;;;;;;;5031483;28;20911;-51
2022/01/12 15:37:46;;;;;;;34.50;19.80;;;;;;;;;;5032496;28;20515;-54
2022/01/12 15:40:12;;;;;;;34.40;19.00;;;;;;;;;;5035023;28;20462;-51
2022/01/12 15:42:38;;;;;;;41.60;21.33;;;;;;;;;;5033518;28;20750;-56